Time;durP1;ratioP1;P1;durP2;ratioP2;P2;SDS_P1;SDS_P2;PMS_P1;PMS_P2;Temp;Humidity;BMP_temperature;BMP_pressure;BME280_temperature;BME280_humidity;BME280_pressure;Samples;Min_cycle;Max_cycle;Signal;HPM_P1;HPM_P2
2021/12/24 00:00:12;;;;;;;12.18;7.00;;;;;;;;;;5041979;28;20029;-57
2021/12/24 00:02:38;;;;;;;9.77;6.30;;;;;;;;;;5045543;28;20053;-58
2021/12/24 00:05:05;;;;;;;12.52;7.18;;;;;;;;;;5045704;28;20033;-50
2021/12/24 00:07:31;;;;;;;14.10;7.05;;;;;;;;;;5044597;28;20079;-57
2021/12/24 00:09:57;;;;;;;12.43;7.18;;;;;;;;;;5044828;28;20096;-57
2021/12/24 00:12:24;;;;;;;15.68;7.03;;;;;;;;;;5044129;28;20491;-57
2021/12/24 00:14:54;;;;;;;15.20;7.30;;;;;;;;;;5045863;28;20043;-57
2021/12/24 00:17:26;;;;;;;10.27;7.00;;;;;;;;;;5044423;28;20039;-53
2021/12/24 00:36:05;;;;;;;12.57;6.78;;;;;;;;;;5040277;28;20081;-58
2021/12/24 00:38:31;;;;;;;11.85;6.65;;;;;;;;;;5025866;28;20087;-57
2021/12/24 00:40:56;;;;;;;11.77;6.45;;;;;;;;;;5023641;28;20053;-58
2021/12/24 00:43:22;;;;;;;10.00;6.85;;;;;;;;;;5023752;28;20123;-57
2021/12/24 00:45:49;;;;;;;10.52;6.43;;;;;;;;;;5020235;28;20616;-58
2021/12/24 00:48:16;;;;;;;14.27;6.88;;;;;;;;;;5021999;28;20057;-57
2021/12/24 00:50:52;;;;;;;11.63;6.45;;;;;;;;;;5024532;28;20366;-55
2021/12/24 00:56:09;;;;;;;13.32;6.50;;;;;;;;;;5023003;28;20029;-57
2021/12/24 00:58:36;;;;;;;13.98;7.25;;;;;;;;;;5022698;28;20481;-57
2021/12/24 01:01:02;;;;;;;15.82;7.30;;;;;;;;;;5022052;28;20884;-58
2021/12/24 01:03:27;;;;;;;13.73;6.80;;;;;;;;;;5023847;28;20038;-56
2021/12/24 01:05:53;;;;;;;13.43;5.90;;;;;;;;;;5022835;28;20084;-57
2021/12/24 01:08:19;;;;;;;12.40;7.40;;;;;;;;;;5023727;28;20044;-57
2021/12/24 01:10:46;;;;;;;12.15;6.43;;;;;;;;;;5005591;28;20044;-57
2021/12/24 01:13:12;;;;;;;14.93;6.53;;;;;;;;;;5021541;28;20029;-57
2021/12/24 01:15:50;;;;;;;10.95;6.43;;;;;;;;;;5023938;28;20300;-58
2021/12/24 01:20:51;;;;;;;11.57;6.38;;;;;;;;;;5022329;28;20022;-58
2021/12/24 01:23:33;;;;;;;12.07;6.55;;;;;;;;;;5007347;28;20033;-54
2021/12/24 01:26:09;;;;;;;10.02;6.60;;;;;;;;;;5021618;28;20094;-55
2021/12/24 01:39:38;;;;;;;14.32;6.75;;;;;;;;;;5022575;28;20102;-59
2021/12/24 01:44:49;;;;;;;9.77;5.72;;;;;;;;;;5022864;28;20099;-58
2021/12/24 01:47:14;;;;;;;11.18;6.07;;;;;;;;;;5021089;28;20033;-53
2021/12/24 01:49:40;;;;;;;10.40;5.75;;;;;;;;;;5023421;28;20119;-56
2021/12/24 01:52:06;;;;;;;9.80;5.90;;;;;;;;;;5022356;28;20710;-56
2021/12/24 01:54:32;;;;;;;10.05;5.78;;;;;;;;;;5023685;28;20044;-58
2021/12/24 01:56:57;;;;;;;11.27;6.85;;;;;;;;;;5020779;28;20393;-56
2021/12/24 01:59:23;;;;;;;13.25;5.82;;;;;;;;;;5007515;28;20103;-58
2021/12/24 02:01:49;;;;;;;12.25;6.35;;;;;;;;;;5023245;28;20493;-57
2021/12/24 02:04:16;;;;;;;10.70;5.95;;;;;;;;;;5025151;28;20112;-58
2021/12/24 02:06:43;;;;;;;11.95;6.50;;;;;;;;;;5020294;28;20029;-52
2021/12/24 02:09:10;;;;;;;9.13;5.45;;;;;;;;;;5023277;28;20037;-58
2021/12/24 02:11:38;;;;;;;10.40;6.18;;;;;;;;;;5020163;28;20690;-58
2021/12/24 02:14:35;;;;;;;9.35;5.47;;;;;;;;;;5021146;28;20025;-58
2021/12/24 02:30:45;;;;;;;8.88;5.32;;;;;;;;;;5022725;28;20167;-51
2021/12/24 02:33:11;;;;;;;10.77;5.88;;;;;;;;;;5022390;28;20455;-57
2021/12/24 02:35:37;;;;;;;9.25;5.90;;;;;;;;;;5023316;28;20568;-53
2021/12/24 02:38:04;;;;;;;9.45;5.68;;;;;;;;;;5021116;28;20053;-57
2021/12/24 02:40:30;;;;;;;8.88;5.63;;;;;;;;;;5023485;28;20063;-57
2021/12/24 02:42:57;;;;;;;12.15;6.13;;;;;;;;;;5020613;28;20037;-58
2021/12/24 02:45:25;;;;;;;12.27;5.88;;;;;;;;;;5019899;28;20029;-58
2021/12/24 02:55:29;;;;;;;10.10;5.82;;;;;;;;;;5021416;28;20095;-59
2021/12/24 02:57:55;;;;;;;10.25;5.60;;;;;;;;;;5019615;28;20029;-58
2021/12/24 03:00:25;;;;;;;8.75;5.53;;;;;;;;;;5023599;28;20037;-57
2021/12/24 03:02:51;;;;;;;12.70;6.25;;;;;;;;;;5021263;28;20057;-55
2021/12/24 03:05:18;;;;;;;9.85;5.50;;;;;;;;;;5022297;28;20091;-57
2021/12/24 03:07:45;;;;;;;11.18;6.00;;;;;;;;;;5022727;28;20482;-58
2021/12/24 03:10:15;;;;;;;12.23;6.25;;;;;;;;;;5022246;28;20029;-57
2021/12/24 03:12:43;;;;;;;9.85;5.95;;;;;;;;;;5021316;28;20017;-58
2021/12/24 03:15:10;;;;;;;11.60;6.05;;;;;;;;;;5021276;28;20041;-55
2021/12/24 03:17:36;;;;;;;11.75;6.22;;;;;;;;;;5022023;28;20099;-57
2021/12/24 03:20:07;;;;;;;9.75;5.97;;;;;;;;;;5019930;28;20748;-58
2021/12/24 03:25:17;;;;;;;7.35;5.40;;;;;;;;;;5024114;28;20052;-58
2021/12/24 03:27:43;;;;;;;10.82;5.47;;;;;;;;;;5022652;28;20022;-56
2021/12/24 03:30:10;;;;;;;9.77;5.88;;;;;;;;;;5024564;28;20167;-58
2021/12/24 03:32:36;;;;;;;9.85;5.93;;;;;;;;;;5026912;28;20021;-52
2021/12/24 03:35:03;;;;;;;10.85;5.95;;;;;;;;;;5028024;28;20492;-53
2021/12/24 03:37:28;;;;;;;7.97;5.15;;;;;;;;;;5026826;28;20885;-56
2021/12/24 03:39:53;;;;;;;8.57;5.68;;;;;;;;;;5026763;28;20018;-56
2021/12/24 03:42:19;;;;;;;6.75;4.93;;;;;;;;;;5025589;28;20111;-56
2021/12/24 03:44:52;;;;;;;6.85;4.90;;;;;;;;;;5026338;28;20397;-58
2021/12/24 03:47:20;;;;;;;6.57;4.68;;;;;;;;;;5010111;28;20568;-59
2021/12/24 03:54:58;;;;;;;6.78;4.40;;;;;;;;;;5026123;28;20781;-61
2021/12/24 03:57:29;;;;;;;8.27;4.60;;;;;;;;;;5025057;28;20080;-60
2021/12/24 03:59:57;;;;;;;8.65;5.00;;;;;;;;;;5025216;28;20041;-60
2021/12/24 04:02:23;;;;;;;7.65;4.57;;;;;;;;;;5026877;28;20026;-55
2021/12/24 04:04:49;;;;;;;6.25;4.25;;;;;;;;;;4990276;28;20033;-60
2021/12/24 04:07:15;;;;;;;7.60;4.53;;;;;;;;;;5025314;28;20092;-59
2021/12/24 04:09:49;;;;;;;8.10;4.45;;;;;;;;;;5022697;28;20721;-60
2021/12/24 04:12:15;;;;;;;7.35;4.55;;;;;;;;;;5025923;28;21415;-60
2021/12/24 04:14:40;;;;;;;6.38;4.30;;;;;;;;;;5023384;28;20029;-58
2021/12/24 04:17:07;;;;;;;5.57;4.10;;;;;;;;;;5026354;28;20032;-60
2021/12/24 04:25:02;;;;;;;7.40;4.15;;;;;;;;;;5020535;28;20055;-60
2021/12/24 04:27:29;;;;;;;5.82;4.20;;;;;;;;;;5024158;28;20025;-59
2021/12/24 04:30:03;;;;;;;6.57;4.20;;;;;;;;;;5024110;28;20044;-58
2021/12/24 04:33:09;;;;;;;7.40;3.78;;;;;;;;;;5025639;28;20037;-53
2021/12/24 04:51:18;;;;;;;7.07;3.85;;;;;;;;;;5024308;28;20449;-61
2021/12/24 05:04:46;;;;;;;6.18;3.70;;;;;;;;;;5024917;28;20099;-60
2021/12/24 05:07:33;;;;;;;5.43;4.35;;;;;;;;;;5024822;28;20033;-58
2021/12/24 05:09:57;;;;;;;6.10;3.90;;;;;;;;;;5023812;28;20091;-60
2021/12/24 05:12:23;;;;;;;7.35;4.05;;;;;;;;;;5024523;28;20462;-60
2021/12/24 05:14:48;;;;;;;5.82;3.92;;;;;;;;;;5024531;28;20044;-60
2021/12/24 05:17:25;;;;;;;6.00;4.22;;;;;;;;;;5023866;28;20660;-60
2021/12/24 05:22:34;;;;;;;7.90;3.88;;;;;;;;;;5024902;28;20192;-61
2021/12/24 05:25:00;;;;;;;5.47;3.75;;;;;;;;;;5024409;28;20136;-60
2021/12/24 05:27:26;;;;;;;7.60;3.90;;;;;;;;;;5023952;28;20155;-57
2021/12/24 05:29:55;;;;;;;6.57;4.22;;;;;;;;;;5025221;28;20025;-57
2021/12/24 05:32:21;;;;;;;6.28;3.78;;;;;;;;;;5023250;28;20017;-56
2021/12/24 05:34:46;;;;;;;6.13;3.88;;;;;;;;;;5024534;28;20139;-55
2021/12/24 05:37:11;;;;;;;8.30;4.15;;;;;;;;;;5023863;28;20040;-57
2021/12/24 05:39:37;;;;;;;4.65;3.38;;;;;;;;;;5023963;28;20029;-57
2021/12/24 05:42:04;;;;;;;5.38;3.70;;;;;;;;;;5024305;28;20258;-51
2021/12/24 05:44:32;;;;;;;6.00;3.80;;;;;;;;;;5023539;28;20025;-54
2021/12/24 05:46:57;;;;;;;7.65;3.97;;;;;;;;;;5024271;28;20025;-53
2021/12/24 05:49:23;;;;;;;8.07;4.43;;;;;;;;;;5023106;28;20029;-55
2021/12/24 05:51:48;;;;;;;4.93;3.50;;;;;;;;;;5006417;28;20738;-56
2021/12/24 05:54:13;;;;;;;7.70;4.18;;;;;;;;;;5006471;28;20037;-57
2021/12/24 05:56:39;;;;;;;7.15;5.18;;;;;;;;;;5021075;28;20413;-57
2021/12/24 05:59:05;;;;;;;10.93;6.47;;;;;;;;;;5022648;28;20087;-57
2021/12/24 06:01:30;;;;;;;8.10;4.03;;;;;;;;;;5019694;28;20561;-56
2021/12/24 06:03:56;;;;;;;7.97;4.60;;;;;;;;;;5022576;28;20079;-57
2021/12/24 06:06:21;;;;;;;8.18;4.22;;;;;;;;;;5022601;28;20429;-57
2021/12/24 06:08:47;;;;;;;7.45;4.07;;;;;;;;;;5021339;28;20032;-55
2021/12/24 06:11:12;;;;;;;7.53;4.25;;;;;;;;;;5021241;28;20119;-55
2021/12/24 06:13:38;;;;;;;5.53;4.05;;;;;;;;;;5022670;28;20033;-54
2021/12/24 06:16:06;;;;;;;9.23;3.95;;;;;;;;;;5023624;28;20033;-51
2021/12/24 06:18:31;;;;;;;8.15;4.50;;;;;;;;;;5023488;28;20041;-56
2021/12/24 06:21:00;;;;;;;7.15;4.50;;;;;;;;;;5023682;28;20032;-57
2021/12/24 06:23:27;;;;;;;8.55;4.43;;;;;;;;;;5023493;28;20388;-56
2021/12/24 06:25:55;;;;;;;10.25;4.90;;;;;;;;;;5020226;28;20482;-56
2021/12/24 06:28:22;;;;;;;5.97;4.28;;;;;;;;;;5025353;28;20044;-56
2021/12/24 06:30:48;;;;;;;9.13;4.93;;;;;;;;;;5020887;28;20033;-54
2021/12/24 06:33:13;;;;;;;7.57;4.78;;;;;;;;;;5015262;28;20156;-53
2021/12/24 06:35:39;;;;;;;7.80;4.68;;;;;;;;;;5013469;28;20036;-55
2021/12/24 06:38:05;;;;;;;10.30;4.78;;;;;;;;;;5012492;28;20445;-56
2021/12/24 06:40:31;;;;;;;9.98;4.65;;;;;;;;;;5013202;28;20075;-56
2021/12/24 06:42:57;;;;;;;7.43;4.03;;;;;;;;;;5013479;28;20030;-55
2021/12/24 06:45:24;;;;;;;6.38;4.30;;;;;;;;;;5013205;28;20041;-52
2021/12/24 06:47:55;;;;;;;7.38;4.30;;;;;;;;;;5013351;28;20093;-55
2021/12/24 06:50:22;;;;;;;5.40;3.90;;;;;;;;;;5013441;28;20033;-54
2021/12/24 06:52:47;;;;;;;8.18;3.63;;;;;;;;;;5014168;28;20033;-54
2021/12/24 06:55:13;;;;;;;6.05;4.22;;;;;;;;;;5012893;28;20014;-54
2021/12/24 06:57:40;;;;;;;7.07;4.38;;;;;;;;;;5012958;28;21405;-56
2021/12/24 07:00:07;;;;;;;7.63;4.10;;;;;;;;;;5012479;28;20060;-51
2021/12/24 07:02:33;;;;;;;5.55;3.58;;;;;;;;;;5019145;28;20091;-53
2021/12/24 07:04:58;;;;;;;7.85;3.58;;;;;;;;;;5023561;28;20033;-54
2021/12/24 07:07:24;;;;;;;7.57;3.85;;;;;;;;;;5021532;28;20021;-58
2021/12/24 07:09:49;;;;;;;6.22;3.88;;;;;;;;;;5022833;28;20096;-57
2021/12/24 07:12:15;;;;;;;5.70;3.65;;;;;;;;;;5022365;28;20037;-53
2021/12/24 07:14:42;;;;;;;7.20;3.70;;;;;;;;;;5022544;28;20036;-56
2021/12/24 07:17:09;;;;;;;5.70;3.47;;;;;;;;;;5022710;28;20095;-55
2021/12/24 07:19:35;;;;;;;4.25;3.22;;;;;;;;;;5020529;28;20033;-56
2021/12/24 07:22:01;;;;;;;4.68;3.20;;;;;;;;;;5022079;28;20116;-52
2021/12/24 07:24:26;;;;;;;3.97;2.92;;;;;;;;;;5022270;28;20246;-54
2021/12/24 07:26:52;;;;;;;6.00;3.35;;;;;;;;;;5021132;28;20454;-56
2021/12/24 07:29:17;;;;;;;5.82;3.53;;;;;;;;;;5022026;28;20397;-55
2021/12/24 07:31:42;;;;;;;6.78;3.40;;;;;;;;;;5022334;28;20029;-54
2021/12/24 07:34:08;;;;;;;4.75;3.08;;;;;;;;;;5021168;28;20482;-56
2021/12/24 07:36:34;;;;;;;4.78;2.80;;;;;;;;;;5025259;28;20163;-54
2021/12/24 07:38:59;;;;;;;7.10;3.40;;;;;;;;;;5026126;28;20022;-55
2021/12/24 07:41:25;;;;;;;5.35;2.70;;;;;;;;;;5024017;28;20540;-54
2021/12/24 07:43:51;;;;;;;4.43;2.70;;;;;;;;;;5025147;28;20075;-56
2021/12/24 07:46:17;;;;;;;5.32;2.70;;;;;;;;;;5008993;28;20053;-57
2021/12/24 07:48:49;;;;;;;7.00;2.60;;;;;;;;;;5024889;28;20059;-56
2021/12/24 07:54:00;;;;;;;6.32;2.88;;;;;;;;;;5026012;28;20088;-57
2021/12/24 07:56:30;;;;;;;3.80;2.58;;;;;;;;;;5027300;28;20034;-53
2021/12/24 07:58:56;;;;;;;4.38;2.95;;;;;;;;;;5024291;28;20022;-56
2021/12/24 08:01:26;;;;;;;7.07;2.78;;;;;;;;;;5024454;28;20115;-55
2021/12/24 08:03:53;;;;;;;5.15;2.22;;;;;;;;;;5011132;28;20025;-54
2021/12/24 08:06:19;;;;;;;3.65;2.50;;;;;;;;;;5007687;28;20029;-56
2021/12/24 08:08:45;;;;;;;4.30;2.58;;;;;;;;;;5023700;28;20060;-55
2021/12/24 08:11:10;;;;;;;3.97;2.17;;;;;;;;;;5024696;28;20028;-56
2021/12/24 08:13:36;;;;;;;6.88;2.72;;;;;;;;;;5026176;28;20033;-55
2021/12/24 08:16:01;;;;;;;3.38;2.28;;;;;;;;;;5025228;28;20378;-54
2021/12/24 08:18:27;;;;;;;4.35;2.42;;;;;;;;;;5011446;28;20680;-56
2021/12/24 08:20:52;;;;;;;5.70;3.05;;;;;;;;;;5032306;28;20041;-56
2021/12/24 08:23:17;;;;;;;4.40;2.45;;;;;;;;;;5029895;28;20107;-55
2021/12/24 08:25:43;;;;;;;5.03;2.78;;;;;;;;;;5029544;28;20048;-57
2021/12/24 08:28:08;;;;;;;5.10;2.38;;;;;;;;;;5009974;28;20080;-52
2021/12/24 08:30:34;;;;;;;3.53;2.45;;;;;;;;;;5031755;28;20520;-54
2021/12/24 08:33:01;;;;;;;6.45;3.30;;;;;;;;;;5017121;28;20024;-56
2021/12/24 08:35:27;;;;;;;6.07;3.28;;;;;;;;;;5019138;28;20116;-53
2021/12/24 08:37:53;;;;;;;6.35;3.20;;;;;;;;;;5047110;28;20036;-57
2021/12/24 08:40:18;;;;;;;5.93;2.70;;;;;;;;;;5036294;28;20040;-56
2021/12/24 08:42:44;;;;;;;5.22;3.08;;;;;;;;;;5034891;28;20033;-54
2021/12/24 08:45:10;;;;;;;6.82;2.97;;;;;;;;;;5033863;28;20025;-52
2021/12/24 08:47:36;;;;;;;8.05;3.50;;;;;;;;;;5035546;28;20048;-50
2021/12/24 08:50:04;;;;;;;5.40;3.10;;;;;;;;;;5035120;28;20028;-57
2021/12/24 08:52:30;;;;;;;5.40;2.60;;;;;;;;;;5038046;28;20032;-56
2021/12/24 08:54:55;;;;;;;7.68;3.30;;;;;;;;;;5034629;28;20029;-57
2021/12/24 08:57:21;;;;;;;5.25;2.53;;;;;;;;;;5034566;28;20173;-56
2021/12/24 08:59:46;;;;;;;6.55;2.90;;;;;;;;;;5034763;28;20775;-57
2021/12/24 09:02:12;;;;;;;6.80;3.03;;;;;;;;;;5035736;28;20128;-50
2021/12/24 09:04:37;;;;;;;7.20;2.97;;;;;;;;;;5034121;28;20025;-56
2021/12/24 09:07:03;;;;;;;7.43;2.83;;;;;;;;;;5035887;28;20027;-52
2021/12/24 09:09:29;;;;;;;6.43;2.90;;;;;;;;;;5036236;28;20538;-56
2021/12/24 09:11:55;;;;;;;6.13;3.05;;;;;;;;;;5036389;28;20171;-51
2021/12/24 09:14:21;;;;;;;7.28;3.05;;;;;;;;;;5045003;28;20107;-57
2021/12/24 09:16:48;;;;;;;5.60;2.90;;;;;;;;;;5044319;28;20024;-53
2021/12/24 09:19:17;;;;;;;7.70;3.60;;;;;;;;;;5044772;28;20103;-56
2021/12/24 09:21:42;;;;;;;4.72;2.60;;;;;;;;;;5043061;28;20485;-56
2021/12/24 09:24:08;;;;;;;4.63;2.70;;;;;;;;;;5045229;28;20036;-59
2021/12/24 09:26:36;;;;;;;6.63;2.50;;;;;;;;;;5044499;28;20202;-56
2021/12/24 09:29:04;;;;;;;6.75;2.72;;;;;;;;;;5044331;28;20108;-54
2021/12/24 09:31:29;;;;;;;7.53;2.80;;;;;;;;;;5044154;28;20033;-56
2021/12/24 09:33:55;;;;;;;6.97;2.75;;;;;;;;;;5045182;28;20078;-54
2021/12/24 09:36:27;;;;;;;6.68;2.90;;;;;;;;;;5038535;28;20029;-57
2021/12/24 09:38:55;;;;;;;7.90;2.97;;;;;;;;;;5024383;28;20083;-53
2021/12/24 09:41:21;;;;;;;7.35;3.33;;;;;;;;;;5022512;28;20555;-56
2021/12/24 09:43:47;;;;;;;9.25;3.10;;;;;;;;;;5023144;28;20230;-54
2021/12/24 09:46:12;;;;;;;6.15;3.03;;;;;;;;;;5024841;28;20924;-56
2021/12/24 09:48:39;;;;;;;6.25;3.05;;;;;;;;;;5023156;28;20056;-56
2021/12/24 09:51:04;;;;;;;5.22;2.90;;;;;;;;;;5025299;28;20337;-54
2021/12/24 09:53:30;;;;;;;6.43;3.17;;;;;;;;;;5026183;28;20032;-52
2021/12/24 09:55:56;;;;;;;6.72;2.88;;;;;;;;;;5025452;28;20056;-56
2021/12/24 09:58:21;;;;;;;8.55;2.72;;;;;;;;;;5004468;28;20059;-56
2021/12/24 10:00:47;;;;;;;6.68;2.95;;;;;;;;;;5022137;28;20037;-58
2021/12/24 10:03:31;;;;;;;7.97;3.15;;;;;;;;;;5023560;28;20036;-53
2021/12/24 10:06:00;;;;;;;8.60;3.10;;;;;;;;;;5024262;28;20248;-54
2021/12/24 10:08:27;;;;;;;5.93;3.08;;;;;;;;;;5023291;28;20029;-56
2021/12/24 10:11:01;;;;;;;8.75;3.20;;;;;;;;;;5021789;28;20033;-56
2021/12/24 10:13:28;;;;;;;7.93;2.75;;;;;;;;;;5021136;28;20029;-57
2021/12/24 10:16:13;;;;;;;6.40;2.85;;;;;;;;;;5005365;28;20032;-58
2021/12/24 10:18:42;;;;;;;7.90;3.05;;;;;;;;;;5022956;28;20083;-58
2021/12/24 10:21:13;;;;;;;3.85;2.67;;;;;;;;;;5023687;28;20025;-57
2021/12/24 10:23:42;;;;;;;6.25;2.97;;;;;;;;;;5022212;28;20590;-56
2021/12/24 10:26:16;;;;;;;6.85;2.60;;;;;;;;;;5023357;28;20068;-55
2021/12/24 10:28:54;;;;;;;4.93;2.53;;;;;;;;;;5022262;28;20073;-57
2021/12/24 10:31:25;;;;;;;5.80;2.78;;;;;;;;;;5021987;28;20039;-56
2021/12/24 10:34:09;;;;;;;8.10;3.28;;;;;;;;;;4992960;28;20415;-55
2021/12/24 10:36:54;;;;;;;7.93;2.55;;;;;;;;;;5002540;28;20041;-56
2021/12/24 10:39:25;;;;;;;7.60;2.53;;;;;;;;;;5008275;28;20033;-54
2021/12/24 10:41:53;;;;;;;6.00;2.60;;;;;;;;;;5013354;28;20391;-55
2021/12/24 10:44:32;;;;;;;3.85;2.40;;;;;;;;;;5017901;28;20028;-55
2021/12/24 10:47:07;;;;;;;5.00;2.53;;;;;;;;;;5015675;28;20034;-55
2021/12/24 10:54:57;;;;;;;4.97;2.53;;;;;;;;;;5024139;28;20022;-53
2021/12/24 10:57:28;;;;;;;5.95;2.53;;;;;;;;;;5024065;28;20033;-56
2021/12/24 10:59:56;;;;;;;7.65;2.70;;;;;;;;;;5026335;28;20128;-54
2021/12/24 11:02:28;;;;;;;5.65;3.00;;;;;;;;;;5026836;28;20137;-56
2021/12/24 11:04:54;;;;;;;7.35;3.40;;;;;;;;;;5010298;28;20021;-53
2021/12/24 11:07:41;;;;;;;6.75;3.17;;;;;;;;;;5027252;28;20083;-53
2021/12/24 11:10:15;;;;;;;5.50;3.15;;;;;;;;;;5026723;28;20040;-56
2021/12/24 11:13:09;;;;;;;7.97;3.30;;;;;;;;;;5026014;28;20029;-56
2021/12/24 11:15:37;;;;;;;6.47;3.33;;;;;;;;;;5020281;28;20492;-56
2021/12/24 11:18:26;;;;;;;7.40;4.20;;;;;;;;;;5007375;28;20067;-54
2021/12/24 11:21:17;;;;;;;7.38;3.92;;;;;;;;;;5024783;28;20053;-56
2021/12/24 11:23:43;;;;;;;7.35;3.90;;;;;;;;;;5025668;28;20025;-55
2021/12/24 11:26:24;;;;;;;8.48;3.88;;;;;;;;;;5026485;28;20159;-56
2021/12/24 11:28:50;;;;;;;6.57;3.40;;;;;;;;;;5027120;28;20038;-54
2021/12/24 11:31:19;;;;;;;8.30;3.83;;;;;;;;;;5023958;28;20029;-56
2021/12/24 11:33:46;;;;;;;9.88;3.63;;;;;;;;;;5026551;28;20434;-53
2021/12/24 11:36:14;;;;;;;9.43;4.18;;;;;;;;;;5022622;28;20128;-55
2021/12/24 11:38:45;;;;;;;12.18;4.50;;;;;;;;;;5021688;28;20430;-55
2021/12/24 11:41:16;;;;;;;7.85;4.22;;;;;;;;;;5020065;28;20026;-56
2021/12/24 11:43:44;;;;;;;10.25;4.18;;;;;;;;;;5021788;28;20037;-55
2021/12/24 11:46:12;;;;;;;8.30;4.22;;;;;;;;;;5021926;28;20116;-52
2021/12/24 11:48:38;;;;;;;6.50;3.70;;;;;;;;;;5020004;28;20026;-57
2021/12/24 11:51:15;;;;;;;5.70;3.50;;;;;;;;;;5023937;28;20107;-55
2021/12/24 11:53:40;;;;;;;8.45;4.05;;;;;;;;;;5024447;28;20109;-51
2021/12/24 11:56:10;;;;;;;8.55;3.60;;;;;;;;;;5025319;28;20111;-54
2021/12/24 11:59:01;;;;;;;6.90;3.47;;;;;;;;;;5024280;28;20111;-54
2021/12/24 12:01:36;;;;;;;6.30;3.67;;;;;;;;;;5022463;28;20056;-54
2021/12/24 12:04:12;;;;;;;6.22;3.00;;;;;;;;;;5024680;28;20034;-57
2021/12/24 12:06:37;;;;;;;6.53;3.67;;;;;;;;;;5027758;28;20892;-58
2021/12/24 12:09:06;;;;;;;8.77;3.53;;;;;;;;;;5025191;28;20394;-56
2021/12/24 12:11:35;;;;;;;7.03;3.00;;;;;;;;;;5025099;28;20393;-54
2021/12/24 12:14:04;;;;;;;4.88;2.90;;;;;;;;;;5026327;28;20026;-57
2021/12/24 12:16:51;;;;;;;4.85;2.80;;;;;;;;;;5025215;28;20025;-54
2021/12/24 12:22:19;;;;;;;6.07;2.88;;;;;;;;;;5025579;28;20036;-55
2021/12/24 12:25:06;;;;;;;5.80;3.22;;;;;;;;;;5024375;28;20029;-56
2021/12/24 12:27:59;;;;;;;4.78;2.72;;;;;;;;;;5024439;28;20171;-57
2021/12/24 12:31:02;;;;;;;5.15;2.42;;;;;;;;;;5023785;28;20041;-55
2021/12/24 12:33:32;;;;;;;5.40;2.78;;;;;;;;;;4964378;28;20035;-57
2021/12/24 12:36:04;;;;;;;7.20;2.65;;;;;;;;;;5016797;28;20524;-56
2021/12/24 12:38:29;;;;;;;5.55;2.65;;;;;;;;;;5023853;28;20026;-55
2021/12/24 12:41:33;;;;;;;4.90;2.63;;;;;;;;;;5026040;28;20072;-57
2021/12/24 12:44:01;;;;;;;2.92;2.25;;;;;;;;;;5023722;28;20057;-53
2021/12/24 12:46:30;;;;;;;4.25;2.38;;;;;;;;;;5026050;28;20073;-55
2021/12/24 12:48:58;;;;;;;3.58;2.20;;;;;;;;;;5008150;28;20033;-56
2021/12/24 12:51:56;;;;;;;6.72;2.67;;;;;;;;;;5023105;28;20639;-55
2021/12/24 12:54:34;;;;;;;5.13;2.63;;;;;;;;;;5024503;28;20022;-50
2021/12/24 12:57:14;;;;;;;4.47;2.42;;;;;;;;;;5022810;28;20086;-54
2021/12/24 13:00:19;;;;;;;3.53;2.20;;;;;;;;;;5026976;28;20037;-56
2021/12/24 13:03:06;;;;;;;5.00;2.13;;;;;;;;;;5023702;28;20179;-54
2021/12/24 13:05:52;;;;;;;2.85;2.00;;;;;;;;;;5024873;28;20160;-54
2021/12/24 13:08:21;;;;;;;4.05;2.35;;;;;;;;;;5023818;28;20033;-55
2021/12/24 13:10:58;;;;;;;3.60;2.15;;;;;;;;;;5024175;28;20270;-56
2021/12/24 13:13:24;;;;;;;5.50;2.47;;;;;;;;;;5023733;28;20026;-56
2021/12/24 13:15:50;;;;;;;3.83;2.40;;;;;;;;;;5024224;28;20036;-56
2021/12/24 13:18:30;;;;;;;5.20;2.33;;;;;;;;;;5025843;28;20090;-56
2021/12/24 13:23:39;;;;;;;4.25;2.38;;;;;;;;;;5021466;28;20037;-56
2021/12/24 13:26:09;;;;;;;3.90;2.45;;;;;;;;;;5023863;28;20112;-56
2021/12/24 13:28:52;;;;;;;3.60;2.20;;;;;;;;;;5023191;28;20044;-54
2021/12/24 13:31:18;;;;;;;5.65;2.20;;;;;;;;;;5023992;28;20030;-54
2021/12/24 13:33:46;;;;;;;3.00;2.20;;;;;;;;;;5022248;28;20037;-55
2021/12/24 13:36:12;;;;;;;4.32;2.08;;;;;;;;;;5024116;28;20033;-53
2021/12/24 13:38:38;;;;;;;4.15;2.08;;;;;;;;;;5006968;28;20146;-54
2021/12/24 13:41:04;;;;;;;5.22;2.25;;;;;;;;;;5024117;28;20036;-55
2021/12/24 13:43:35;;;;;;;3.80;2.15;;;;;;;;;;5022959;28;20083;-54
2021/12/24 13:46:09;;;;;;;3.55;2.20;;;;;;;;;;5021955;28;20040;-51
2021/12/24 13:49:19;;;;;;;4.55;2.60;;;;;;;;;;5021865;28;20371;-55
2021/12/24 13:56:42;;;;;;;5.65;2.17;;;;;;;;;;5025559;28;20462;-57
2021/12/24 13:59:09;;;;;;;5.80;2.90;;;;;;;;;;5021142;28;20771;-58
2021/12/24 14:01:35;;;;;;;4.18;2.88;;;;;;;;;;5023038;28;20088;-51
2021/12/24 14:04:04;;;;;;;5.03;2.40;;;;;;;;;;5021497;28;20025;-57
2021/12/24 14:06:42;;;;;;;4.47;2.50;;;;;;;;;;5007850;28;20033;-57
2021/12/24 14:09:11;;;;;;;4.20;2.45;;;;;;;;;;5021416;28;20033;-55
2021/12/24 14:11:37;;;;;;;2.67;2.15;;;;;;;;;;5021728;28;20017;-54
2021/12/24 14:14:09;;;;;;;5.47;2.65;;;;;;;;;;5021397;28;20037;-57
2021/12/24 14:19:27;;;;;;;2.67;2.08;;;;;;;;;;5021791;28;20055;-56
2021/12/24 14:21:53;;;;;;;4.17;2.30;;;;;;;;;;5022194;28;20034;-55
2021/12/24 14:24:34;;;;;;;4.20;2.20;;;;;;;;;;5021165;28;20034;-55
2021/12/24 14:27:12;;;;;;;2.92;2.17;;;;;;;;;;5020947;28;20032;-56
2021/12/24 14:29:43;;;;;;;3.63;2.17;;;;;;;;;;5020998;28;20029;-56
2021/12/24 14:32:15;;;;;;;3.35;1.92;;;;;;;;;;5021592;28;20457;-53
2021/12/24 14:34:51;;;;;;;3.67;2.38;;;;;;;;;;5022461;28;20136;-57
2021/12/24 14:37:37;;;;;;;4.05;2.40;;;;;;;;;;5021057;28;20045;-57
2021/12/24 14:40:08;;;;;;;4.55;2.13;;;;;;;;;;5021873;28;20044;-55
2021/12/24 14:42:56;;;;;;;5.30;2.42;;;;;;;;;;5016921;28;20398;-52
2021/12/24 14:45:41;;;;;;;2.72;2.28;;;;;;;;;;5021425;28;20099;-54
2021/12/24 14:48:07;;;;;;;4.75;2.38;;;;;;;;;;5020365;28;20080;-53
2021/12/24 14:50:41;;;;;;;3.28;2.28;;;;;;;;;;5021119;28;20596;-53
2021/12/24 14:53:30;;;;;;;4.82;2.70;;;;;;;;;;5020868;28;20036;-57
2021/12/24 14:56:12;;;;;;;2.97;2.35;;;;;;;;;;5021055;28;20123;-56
2021/12/24 14:58:50;;;;;;;2.92;2.55;;;;;;;;;;5021650;28;20022;-58
2021/12/24 15:01:22;;;;;;;4.50;2.85;;;;;;;;;;5017559;28;20025;-57
2021/12/24 15:03:55;;;;;;;4.05;2.80;;;;;;;;;;5006389;28;20033;-56
2021/12/24 15:06:27;;;;;;;3.58;2.65;;;;;;;;;;5016945;28;20528;-53
2021/12/24 15:08:55;;;;;;;3.08;2.17;;;;;;;;;;5022468;28;20122;-56
2021/12/24 15:11:26;;;;;;;4.22;2.00;;;;;;;;;;5017746;28;20036;-55
2021/12/24 15:14:01;;;;;;;3.15;1.92;;;;;;;;;;5018015;28;20303;-54
2021/12/24 15:16:30;;;;;;;2.97;2.30;;;;;;;;;;5020630;28;20482;-56
2021/12/24 15:18:58;;;;;;;2.42;1.92;;;;;;;;;;5020677;28;20482;-54
2021/12/24 15:21:26;;;;;;;2.95;2.10;;;;;;;;;;5020863;28;20033;-56
2021/12/24 15:23:53;;;;;;;3.15;2.10;;;;;;;;;;5022086;28;20125;-55
2021/12/24 15:26:20;;;;;;;4.40;2.00;;;;;;;;;;5022498;28;20043;-56
2021/12/24 15:28:48;;;;;;;3.75;2.40;;;;;;;;;;5024117;28;20241;-57
2021/12/24 15:31:15;;;;;;;4.28;2.55;;;;;;;;;;5024146;28;20134;-53
2021/12/24 15:33:41;;;;;;;4.28;2.55;;;;;;;;;;5026368;28;20037;-57
2021/12/24 15:36:08;;;;;;;5.25;2.78;;;;;;;;;;5011793;28;20456;-54
2021/12/24 15:38:34;;;;;;;3.25;2.17;;;;;;;;;;5047581;28;20605;-57
2021/12/24 15:41:00;;;;;;;2.63;2.05;;;;;;;;;;5059687;28;20031;-54
2021/12/24 15:43:26;;;;;;;3.60;2.25;;;;;;;;;;5045702;28;20028;-56
2021/12/24 15:45:53;;;;;;;2.47;2.10;;;;;;;;;;5044314;28;20051;-58
2021/12/24 15:48:19;;;;;;;2.85;2.00;;;;;;;;;;5045947;28;21367;-58
2021/12/24 15:50:44;;;;;;;2.88;2.10;;;;;;;;;;5045275;28;20982;-54
2021/12/24 15:53:10;;;;;;;3.17;2.28;;;;;;;;;;5043752;28;20051;-56
2021/12/24 15:55:36;;;;;;;2.80;2.25;;;;;;;;;;5044027;28;20020;-55
2021/12/24 15:58:07;;;;;;;2.92;2.30;;;;;;;;;;5044890;28;21239;-57
2021/12/24 16:00:38;;;;;;;4.80;2.25;;;;;;;;;;5045908;28;20103;-57
2021/12/24 16:03:04;;;;;;;2.83;2.50;;;;;;;;;;5046144;28;20035;-52
2021/12/24 16:05:30;;;;;;;3.97;2.17;;;;;;;;;;5045960;28;20068;-53
2021/12/24 16:07:55;;;;;;;4.00;2.40;;;;;;;;;;5045912;28;20060;-56
2021/12/24 16:10:21;;;;;;;3.15;2.22;;;;;;;;;;5044825;28;20115;-56
2021/12/24 16:12:46;;;;;;;3.45;2.38;;;;;;;;;;5045011;28;20035;-58
2021/12/24 16:15:15;;;;;;;2.47;2.22;;;;;;;;;;5045039;28;20029;-56
2021/12/24 16:17:40;;;;;;;3.88;2.67;;;;;;;;;;5047858;28;20028;-57
2021/12/24 16:20:07;;;;;;;3.75;2.47;;;;;;;;;;5042461;28;20078;-55
2021/12/24 16:22:33;;;;;;;2.75;2.00;;;;;;;;;;5045948;28;20040;-56
2021/12/24 16:24:58;;;;;;;3.20;2.30;;;;;;;;;;5045079;28;20039;-56
2021/12/24 16:27:24;;;;;;;6.22;2.83;;;;;;;;;;5042530;28;20373;-56
2021/12/24 16:29:53;;;;;;;3.92;2.20;;;;;;;;;;5044913;28;20616;-57
2021/12/24 16:32:28;;;;;;;3.40;2.55;;;;;;;;;;5046601;28;20095;-56
2021/12/24 16:34:55;;;;;;;3.00;2.15;;;;;;;;;;5043467;28;20075;-54
2021/12/24 16:37:20;;;;;;;2.83;2.50;;;;;;;;;;5031824;28;20021;-53
2021/12/24 16:39:46;;;;;;;6.40;2.58;;;;;;;;;;5025065;28;20079;-56
2021/12/24 16:42:13;;;;;;;3.08;1.85;;;;;;;;;;5026310;28;20445;-57
2021/12/24 16:44:38;;;;;;;2.30;1.80;;;;;;;;;;5021590;28;20025;-58
2021/12/24 16:47:06;;;;;;;1.85;1.63;;;;;;;;;;5026836;28;20575;-56
2021/12/24 16:49:32;;;;;;;3.33;1.80;;;;;;;;;;5022587;28;20048;-55
2021/12/24 16:51:58;;;;;;;2.53;1.90;;;;;;;;;;5025608;28;20030;-53
2021/12/24 16:54:23;;;;;;;1.90;1.67;;;;;;;;;;5023589;28;20045;-57